^^
Station Historical Data
 
Daily Summary for February 21, 2017 Units:  English    Metric   Both
« Previous Day
Next Day »
Daily Weekly Monthly Yearly Custom
  Current: High: Low: Average:
Temperature: 37.5 °F 37.5 °F 27.1 °F 29.9 °F
Dew Point: 19.1 °F 19.1 °F 12.2 °F 14.9 °F
Humidity: 47% 63% 46% 54%
Wind Speed: 0.0mph 1.0mph 0.0mph 0mph
Wind Gust: 4.0mph 4.0mph - -
WindCalm - - SW
Pressure: 30.40 in 30.42 in 30.37 in -
Precipitation: 0.00 in      
Historical Graphs
 
 
Tabular Data for February 21, 2017
Time Temperature Dew Point Pressure Wind Wind Speed Wind Gust Humidity Rainfall Rate (Hourly) Conditions
00:00 31.1 °F 17.2 °F 30.37 in Calm     56% 0.00 in CLR
00:15 30.8 °F 16.9 °F 30.38 in Calm     56% 0.00 in CLR
00:30 30.8 °F 15.7 °F 30.39 in Calm     53% 0.00 in CLR
00:45 30.4 °F 16.1 °F 30.39 in Calm     55% 0.00 in CLR
01:00 30.4 °F 15.7 °F 30.39 in Calm     54% 0.00 in CLR
01:15 30.1 °F 15.0 °F 30.39 in Calm     53% 0.00 in CLR
01:30 30.4 °F 15.3 °F 30.39 in Calm     53% 0.00 in CLR
01:45 30.1 °F 14.6 °F 30.39 in Calm     52% 0.00 in CLR
02:00 29.9 °F 13.9 °F 30.39 in Calm     51% 0.00 in CLR
02:15 29.7 °F 13.8 °F 30.39 in Calm     51% 0.00 in CLR
02:30 30.2 °F 12.8 °F 30.39 in Calm     48% 0.00 in CLR
02:45 30.6 °F 12.7 °F 30.38 in Calm   1.0 mph 47% 0.00 in CLR
03:00 30.5 °F 12.2 °F 30.38 in Calm   1.0 mph 46% 0.00 in CLR
03:15 30.6 °F 12.2 °F 30.38 in Calm     46% 0.00 in CLR
03:30 30.1 °F 12.8 °F 30.38 in Calm   1.0 mph 48% 0.00 in CLR
03:45 28.5 °F 13.1 °F 30.38 in Calm     52% 0.00 in CLR
04:00 28.4 °F 12.6 °F 30.38 in Calm     51% 0.00 in CLR
04:15 28.6 °F 12.7 °F 30.39 in Calm     51% 0.00 in CLR
04:30 27.2 °F 13.5 °F 30.40 in Calm     56% 0.00 in CLR
04:45 27.1 °F 16.2 °F 30.41 in Calm     63% 0.00 in CLR
05:00 27.7 °F 14.0 °F 30.41 in Calm     56% 0.00 in CLR
05:15 28.3 °F 14.6 °F 30.41 in Calm     56% 0.00 in CLR
05:30 27.7 °F 14.4 °F 30.41 in Calm     57% 0.00 in CLR
05:45 28.1 °F 15.6 °F 30.41 in Calm     59% 0.00 in CLR
06:00 27.7 °F 14.4 °F 30.40 in Calm     57% 0.00 in CLR
06:15 27.8 °F 13.7 °F 30.39 in Calm     55% 0.00 in CLR
06:30 28.1 °F 14.4 °F 30.38 in Calm   1.0 mph 56% 0.00 in CLR
06:45 28.4 °F 14.7 °F 30.38 in Calm   1.0 mph 56% 0.00 in CLR
07:00 29.2 °F 14.2 °F 30.38 in Calm   3.0 mph 53% 0.00 in CLR
07:15 28.7 °F 15.8 °F 30.41 in Calm   1.0 mph 58% 0.00 in CLR
07:30 28.7 °F 16.1 °F 30.42 in Calm     59% 0.00 in CLR
07:45 29.0 °F 16.1 °F 30.41 in Calm     58% 0.00 in CLR
08:00 29.7 °F 16.7 °F 30.41 in Calm   1.0 mph 58% 0.00 in CLR
08:15 31.0 °F 16.3 °F 30.42 in Calm   1.0 mph 54% 0.00 in CLR
08:30 32.3 °F 16.6 °F 30.41 in Calm   1.0 mph 52% 0.00 in CLR
08:45 34.1 °F 17.4 °F 30.40 in SW 1.0 mph 2.0 mph 50% 0.00 in CLR
09:00 35.4 °F 18.1 °F 30.40 in Calm   2.0 mph 49% 0.00 in CLR
09:15 37.5 °F 19.1 °F 30.40 in Calm   4.0 mph 47% 0.00 in CLR
TarryTown NY Weather
Compliments of Weather Underground - 1.25 mb